Crystal Beach, Florida
Current Conditions -  °F | °C
As of 11:35 PM on Saturday 22 Nov 2014 (Local Time) from KCLW Reporting Station
Overcast Overcast  
Wind Chill: 70°   Ceiling: 3900
Heat Index: 70°   Visibility: 10mi
Dew Point: 66°   Wind: 9mph
Humidity: 88%   Direction: 120°ESE
Pressure: 30.05"   Gusts: NA
Location:  28.09°N, 82.78°W
Report Text: KCLW 230435Z AUTO 12008KT 10SM SCT016 BKN039 OVC080 21/19 A3005 RMK AO2
Loading
Personal Weather Stations






























Interactive Weather Map New forecast layout! Learn more

10-Day Weather Forecast

Advertisements
Track Severe Weather on mobile